Time,TemperatureF,DewpointF,PressureIn,WindDirection,WindDirectionDegrees,WindSpeedMPH,WindSpeedGustMPH,Humidity,HourlyPrecipIn,Conditions,Clouds,dailyrainin,SoftwareType,DateUTC
2013-01-11 00:07:00,32.0,32.0,30.12,West,274,0.0,0.0,99,0.00,,,0.00,weatherlink.com 1.10,2013-01-11 08:07:00,
2013-01-11 00:22:00,32.0,32.0,30.12,West,278,0.0,0.0,99,0.00,,,0.00,weatherlink.com 1.10,2013-01-11 08:22:00,
2013-01-11 00:37:00,32.0,32.0,30.13,West,278,0.0,0.0,99,0.00,,,0.00,weatherlink.com 1.10,2013-01-11 08:37:00,
2013-01-11 00:52:00,32.0,32.0,30.13,West,278,0.0,0.0,99,0.00,,,0.00,weatherlink.com 1.10,2013-01-11 08:52:00,
2013-01-11 01:07:00,31.9,32.0,30.13,WNW,290,0.0,1.0,99,0.00,,,0.00,weatherlink.com 1.10,2013-01-11 09:07:00,
2013-01-11 01:22:00,31.7,32.0,30.13,North,4,0.0,0.0,99,0.00,,,0.00,weatherlink.com 1.10,2013-01-11 09:22:00,
2013-01-11 01:37:00,31.3,31.0,30.14,NNW,335,0.0,0.0,99,0.00,,,0.00,weatherlink.com 1.10,2013-01-11 09:37:00,
2013-01-11 01:52:00,30.9,31.0,30.14,East,94,0.0,0.0,99,0.00,,,0.00,weatherlink.com 1.10,2013-01-11 09:52:00,
2013-01-11 02:23:00,30.2,30.0,30.15,ESE,103,0.0,0.0,99,0.00,,,0.00,weatherlink.com 1.10,2013-01-11 10:23:00,
2013-01-11 02:38:00,29.7,30.0,30.15,ESE,103,0.0,0.0,99,0.00,,,0.00,weatherlink.com 1.10,2013-01-11 10:38:00,
2013-01-11 02:53:00,29.2,29.0,30.15,ESE,103,0.0,0.0,99,0.00,,,0.00,weatherlink.com 1.10,2013-01-11 10:53:00,
2013-01-11 03:08:00,28.9,29.0,30.16,ESE,103,0.0,0.0,99,0.00,,,0.00,weatherlink.com 1.10,2013-01-11 11:08:00,
2013-01-11 03:23:00,28.6,28.0,30.16,ESE,103,0.0,0.0,99,0.00,,,0.00,weatherlink.com 1.10,2013-01-11 11:23:00,
2013-01-11 03:38:00,28.9,29.0,30.16,East,98,0.0,0.0,99,0.00,,,0.00,weatherlink.com 1.10,2013-01-11 11:38:00,
2013-01-11 03:53:00,28.7,29.0,30.16,East,98,0.0,0.0,99,0.00,,,0.00,weatherlink.com 1.10,2013-01-11 11:53:00,
2013-01-11 04:08:00,28.7,29.0,30.16,East,98,0.0,0.0,99,0.00,,,0.00,weatherlink.com 1.10,2013-01-11 12:08:00,
2013-01-11 04:23:00,28.4,28.0,30.16,East,98,0.0,0.0,99,0.00,,,0.00,weatherlink.com 1.10,2013-01-11 12:23:00,
2013-01-11 04:38:00,27.9,28.0,30.16,East,98,0.0,0.0,99,0.00,,,0.00,weatherlink.com 1.10,2013-01-11 12:38:00,
2013-01-11 04:53:00,27.6,27.0,30.17,East,98,0.0,0.0,99,0.00,,,0.00,weatherlink.com 1.10,2013-01-11 12:53:00,
2013-01-11 05:08:00,27.1,27.0,30.18,East,98,0.0,0.0,99,0.00,,,0.00,weatherlink.com 1.10,2013-01-11 13:08:00,
2013-01-11 05:23:00,27.7,28.0,30.18,East,98,0.0,0.0,99,0.00,,,0.00,weatherlink.com 1.10,2013-01-11 13:23:00,
2013-01-11 05:38:00,27.5,27.0,30.18,East,98,0.0,0.0,99,0.00,,,0.00,weatherlink.com 1.10,2013-01-11 13:38:00,
2013-01-11 05:53:00,26.9,27.0,30.19,East,98,0.0,0.0,99,0.00,,,0.00,weatherlink.com 1.10,2013-01-11 13:53:00,
2013-01-11 06:08:00,26.8,27.0,30.20,ESE,103,0.0,0.0,99,0.00,,,0.00,weatherlink.com 1.10,2013-01-11 14:08:00,
2013-01-11 06:23:00,26.6,26.0,30.20,ESE,103,0.0,0.0,99,0.00,,,0.00,weatherlink.com 1.10,2013-01-11 14:23:00,
2013-01-11 06:38:00,25.9,26.0,30.20,ESE,103,0.0,0.0,99,0.00,,,0.00,weatherlink.com 1.10,2013-01-11 14:38:00,
2013-01-11 06:53:00,25.7,26.0,30.21,ESE,103,0.0,0.0,99,0.00,,,0.00,weatherlink.com 1.10,2013-01-11 14:53:00,
2013-01-11 07:08:00,25.4,25.0,30.22,ESE,103,0.0,0.0,99,0.00,,,0.00,weatherlink.com 1.10,2013-01-11 15:08:00,
2013-01-11 07:23:00,25.3,25.0,30.23,ESE,103,0.0,0.0,99,0.00,,,0.00,weatherlink.com 1.10,2013-01-11 15:23:00,
2013-01-11 07:38:00,25.4,25.0,30.24,ESE,103,0.0,0.0,99,0.00,,,0.00,weatherlink.com 1.10,2013-01-11 15:38:00,
2013-01-11 07:53:00,25.2,25.0,30.25,ESE,103,0.0,0.0,99,0.00,,,0.00,weatherlink.com 1.10,2013-01-11 15:53:00,
2013-01-11 08:08:00,25.7,26.0,30.25,ESE,103,0.0,0.0,99,0.00,,,0.00,weatherlink.com 1.10,2013-01-11 16:08:00,
2013-01-11 08:23:00,25.7,26.0,30.26,ESE,103,0.0,0.0,99,0.00,,,0.00,weatherlink.com 1.10,2013-01-11 16:23:00,
2013-01-11 08:38:00,25.7,26.0,30.26,ESE,103,0.0,0.0,99,0.00,,,0.00,weatherlink.com 1.10,2013-01-11 16:38:00,
2013-01-11 08:53:00,25.8,26.0,30.27,ESE,103,0.0,0.0,99,0.00,,,0.00,weatherlink.com 1.10,2013-01-11 16:53:00,
2013-01-11 09:08:00,25.9,26.0,30.28,ESE,103,0.0,0.0,99,0.00,,,0.00,weatherlink.com 1.10,2013-01-11 17:08:00,
2013-01-11 09:24:00,26.6,26.0,30.28,ESE,103,0.0,0.0,99,0.00,,,0.00,weatherlink.com 1.10,2013-01-11 17:24:00,
2013-01-11 09:39:00,27.9,28.0,30.28,East,96,0.0,0.0,99,0.00,,,0.00,weatherlink.com 1.10,2013-01-11 17:39:00,
2013-01-11 09:54:00,29.0,29.0,30.29,East,93,0.0,0.0,99,0.00,,,0.00,weatherlink.com 1.10,2013-01-11 17:54:00,
2013-01-11 10:09:00,29.4,29.0,30.29,South,183,0.0,0.0,99,0.00,,,0.00,weatherlink.com 1.10,2013-01-11 18:09:00,
2013-01-11 10:24:00,30.5,30.0,30.30,South,183,0.0,2.0,99,0.00,,,0.00,weatherlink.com 1.10,2013-01-11 18:24:00,
2013-01-11 10:39:00,31.7,32.0,30.30,South,183,0.0,4.0,99,0.00,,,0.00,weatherlink.com 1.10,2013-01-11 18:39:00,
2013-01-11 10:54:00,32.2,31.0,30.30,South,183,0.0,3.0,95,0.00,,,0.00,weatherlink.com 1.10,2013-01-11 18:54:00,
2013-01-11 11:09:00,32.3,31.0,30.30,South,184,0.0,3.0,93,0.00,,,0.00,weatherlink.com 1.10,2013-01-11 19:09:00,
2013-01-11 11:24:00,32.9,31.0,30.30,South,183,0.0,4.0,93,0.00,,,0.00,weatherlink.com 1.10,2013-01-11 19:24:00,
2013-01-11 11:39:00,33.3,31.0,30.30,South,183,0.0,4.0,91,0.00,,,0.00,weatherlink.com 1.10,2013-01-11 19:39:00,
2013-01-11 11:54:00,33.5,30.0,30.31,South,184,1.0,5.0,88,0.00,,,0.00,weatherlink.com 1.10,2013-01-11 19:54:00,
2013-01-11 12:09:00,33.8,30.0,30.30,South,184,0.0,6.0,87,0.00,,,0.00,weatherlink.com 1.10,2013-01-11 20:09:00,
2013-01-11 12:24:00,34.0,30.0,30.30,South,183,2.0,7.0,86,0.00,,,0.00,weatherlink.com 1.10,2013-01-11 20:24:00,
2013-01-11 12:39:00,34.4,30.0,30.30,ENE,61,1.0,4.0,85,0.00,,,0.00,weatherlink.com 1.10,2013-01-11 20:39:00,
2013-01-11 12:54:00,34.5,31.0,30.30,SSE,150,0.0,4.0,85,0.00,,,0.00,weatherlink.com 1.10,2013-01-11 20:54:00,
2013-01-11 13:09:00,34.8,29.0,30.30,NW,304,0.0,5.0,78,0.00,,,0.00,weatherlink.com 1.10,2013-01-11 21:09:00,
2013-01-11 13:24:00,34.9,27.0,30.30,ESE,113,0.0,5.0,72,0.00,,,0.00,weatherlink.com 1.10,2013-01-11 21:24:00,
2013-01-11 13:39:00,35.3,26.0,30.30,NE,53,1.0,6.0,69,0.00,,,0.00,weatherlink.com 1.10,2013-01-11 21:39:00,
2013-01-11 13:54:00,35.7,25.0,30.31,NNW,328,0.0,3.0,66,0.00,,,0.00,weatherlink.com 1.10,2013-01-11 21:54:00,
2013-01-11 14:09:00,35.9,26.0,30.31,ENE,77,2.0,4.0,67,0.00,,,0.00,weatherlink.com 1.10,2013-01-11 22:09:00,
2013-01-11 14:24:00,36.2,24.0,30.31,NNW,347,0.0,4.0,61,0.00,,,0.00,weatherlink.com 1.10,2013-01-11 22:24:00,
2013-01-11 14:39:00,36.3,23.0,30.31,NW,316,0.0,5.0,60,0.00,,,0.00,weatherlink.com 1.10,2013-01-11 22:39:00,
2013-01-11 14:54:00,36.4,25.0,30.31,ENE,66,0.0,2.0,63,0.00,,,0.00,weatherlink.com 1.10,2013-01-11 22:54:00,
2013-01-11 15:09:00,36.6,24.0,30.32,West,278,3.0,5.0,61,0.00,,,0.00,weatherlink.com 1.10,2013-01-11 23:09:00,
2013-01-11 15:24:00,36.9,24.0,30.32,WSW,255,2.0,3.0,60,0.00,,,0.00,weatherlink.com 1.10,2013-01-11 23:24:00,
2013-01-11 15:39:00,36.0,24.0,30.32,ENE,77,0.0,3.0,61,0.00,,,0.00,weatherlink.com 1.10,2013-01-11 23:39:00,
2013-01-11 15:54:00,35.3,25.0,30.32,WNW,288,0.0,3.0,65,0.00,,,0.00,weatherlink.com 1.10,2013-01-11 23:54:00,
2013-01-11 16:09:00,34.5,24.0,30.32,WNW,294,1.0,2.0,65,0.00,,,0.00,weatherlink.com 1.10,2013-01-12 00:09:00,
2013-01-11 16:24:00,33.2,26.0,30.32,WNW,284,0.0,1.0,75,0.00,,,0.00,weatherlink.com 1.10,2013-01-12 00:24:00,
2013-01-11 16:39:00,30.6,26.0,30.32,WNW,285,0.0,0.0,84,0.00,,,0.00,weatherlink.com 1.10,2013-01-12 00:39:00,
2013-01-11 16:54:00,29.2,26.0,30.32,WNW,285,0.0,0.0,89,0.00,,,0.00,weatherlink.com 1.10,2013-01-12 00:54:00,
2013-01-11 17:09:00,28.1,26.0,30.32,WNW,285,0.0,0.0,92,0.00,,,0.00,weatherlink.com 1.10,2013-01-12 01:09:00,
2013-01-11 17:24:00,27.4,26.0,30.32,NNW,348,0.0,0.0,93,0.00,,,0.00,weatherlink.com 1.10,2013-01-12 01:24:00,
2013-01-11 17:39:00,27.1,26.0,30.33,NNW,348,0.0,0.0,95,0.00,,,0.00,weatherlink.com 1.10,2013-01-12 01:39:00,
2013-01-11 17:54:00,26.4,25.0,30.33,NNW,348,0.0,0.0,95,0.00,,,0.00,weatherlink.com 1.10,2013-01-12 01:54:00,
2013-01-11 18:09:00,26.2,26.0,30.33,NNW,348,0.0,0.0,97,0.00,,,0.00,weatherlink.com 1.10,2013-01-12 02:09:00,
2013-01-11 18:24:00,25.4,25.0,30.33,NNW,348,0.0,0.0,96,0.00,,,0.00,weatherlink.com 1.10,2013-01-12 02:24:00,
2013-01-11 18:40:00,25.4,25.0,30.33,NNW,348,0.0,0.0,97,0.00,,,0.00,weatherlink.com 1.10,2013-01-12 02:40:00,
2013-01-11 18:55:00,25.2,25.0,30.33,NNW,348,0.0,0.0,97,0.00,,,0.00,weatherlink.com 1.10,2013-01-12 02:55:00,
2013-01-11 19:10:00,25.1,24.0,30.33,NNW,348,0.0,0.0,97,0.00,,,0.00,weatherlink.com 1.10,2013-01-12 03:10:00,
2013-01-11 19:25:00,25.0,25.0,30.33,NNW,348,0.0,0.0,98,0.00,,,0.00,weatherlink.com 1.10,2013-01-12 03:25:00,
2013-01-11 19:40:00,25.0,25.0,30.33,NNW,348,0.0,0.0,98,0.00,,,0.00,weatherlink.com 1.10,2013-01-12 03:40:00,
2013-01-11 19:55:00,24.7,24.0,30.32,NNW,348,0.0,0.0,98,0.00,,,0.00,weatherlink.com 1.10,2013-01-12 03:55:00,
2013-01-11 20:10:00,24.7,24.0,30.32,NNW,348,0.0,0.0,98,0.00,,,0.00,weatherlink.com 1.10,2013-01-12 04:10:00,
2013-01-11 20:25:00,25.0,25.0,30.32,NNW,348,0.0,0.0,98,0.00,,,0.00,weatherlink.com 1.10,2013-01-12 04:25:00,
2013-01-11 20:40:00,25.1,25.0,30.33,NNW,348,0.0,0.0,98,0.00,,,0.00,weatherlink.com 1.10,2013-01-12 04:40:00,
2013-01-11 20:55:00,24.8,24.0,30.33,NNW,348,0.0,0.0,98,0.00,,,0.00,weatherlink.com 1.10,2013-01-12 04:55:00,
2013-01-11 21:10:00,24.6,24.0,30.33,NNW,348,0.0,0.0,98,0.00,,,0.00,weatherlink.com 1.10,2013-01-12 05:10:00,
2013-01-11 21:25:00,24.6,24.0,30.32,NNW,348,0.0,0.0,98,0.00,,,0.00,weatherlink.com 1.10,2013-01-12 05:25:00,
2013-01-11 21:40:00,24.3,24.0,30.32,NNW,348,0.0,0.0,98,0.00,,,0.00,weatherlink.com 1.10,2013-01-12 05:40:00,
2013-01-11 21:55:00,24.0,24.0,30.33,NNW,348,0.0,0.0,98,0.00,,,0.00,weatherlink.com 1.10,2013-01-12 05:55:00,
2013-01-11 22:10:00,24.1,24.0,30.32,NNW,348,0.0,0.0,98,0.00,,,0.00,weatherlink.com 1.10,2013-01-12 06:10:00,
2013-01-11 22:25:00,23.7,23.0,30.32,NNW,348,0.0,0.0,98,0.00,,,0.00,weatherlink.com 1.10,2013-01-12 06:25:00,
2013-01-11 22:40:00,23.7,23.0,30.32,NNW,348,0.0,0.0,98,0.00,,,0.00,weatherlink.com 1.10,2013-01-12 06:40:00,
2013-01-11 22:55:00,23.2,23.0,30.33,NNW,348,0.0,0.0,98,0.00,,,0.00,weatherlink.com 1.10,2013-01-12 06:55:00,
2013-01-11 23:10:00,23.0,23.0,30.33,NNW,348,0.0,0.0,98,0.00,,,0.00,weatherlink.com 1.10,2013-01-12 07:10:00,
2013-01-11 23:25:00,22.7,22.0,30.33,NNW,348,0.0,0.0,98,0.00,,,0.00,weatherlink.com 1.10,2013-01-12 07:25:00,
2013-01-11 23:40:00,22.6,22.0,30.33,NNW,348,0.0,0.0,98,0.00,,,0.00,weatherlink.com 1.10,2013-01-12 07:40:00,
2013-01-11 23:55:00,22.3,22.0,30.32,NNW,348,0.0,0.0,97,0.00,,,0.00,weatherlink.com 1.10,2013-01-12 07:55:00,